Edgewater, Florida
Current Conditions -  °F | °C
As of 6:50 AM on Friday 24 Oct 2014 (Local Time) from KEVB Reporting Station
Broken Clouds Broken Clouds  
Wind Chill: 63°   Ceiling: 4500
Heat Index: 63°   Visibility: 10mi
Dew Point: 57°   Wind: 3mph
Humidity: 82%   Direction: 360°N
Pressure: 29.98"   Gusts: NA
Location:  28.99°N, 80.9°W
Report Text: KEVB 241050Z 36003KT 10SM BKN045 17/14 A2998 RMK FIRST
Loading
Personal Weather Stations






























Interactive Weather Map
Tropical Storm Tracking
New forecast layout! Learn more

10-Day Weather Forecast

Advertisements
Track Severe Weather on mobile